Fairmont, MN (56031)

2:05 AM CST on December 11, 2016 (GMT -0600)
FudgeHome | | Change Station
Active Advisory: Winter Weather Advisory

Elev 1178 ft 43.67 °N, 94.47 °W | Updated 29 seconds ago

Light Snow
Light Snow Mist
19.0 °F
Feels Like 19 °F
N
3.0
Wind Variable Wind from ESE

Today
High -- | Low -- °F
--% Chance of Precip.
Yesterday
High -- | Low -- °F
Precip. -- in
Pressure 30.01 in
Visibility 4.0 miles
Clouds Scattered Clouds 2200 ft
Mostly Cloudy 2900 ft
Overcast 6500 ft
Windchill 19 °F
Dew Point 18 °F
Humidity 98%
Rainfall 0.00 in
Snow Depth Not available.
7:41 AM 4:41 PM
Waxing Gibbous, 90% visible
METAR KFRM 110756Z AUTO 12015KT 4SM -SN BR SCT022 BKN029 OVC065 M07/M08 A2993 RMK AO2 SLP160 P0000 T10671083 FZRANO
Pressure 30.01 in
Visibility 4.0 miles
Clouds Scattered Clouds 2200 ft
Mostly Cloudy 2900 ft
Overcast 6500 ft
Windchill 19 °F
Dew Point 18 °F
Humidity 98%
Rainfall 0.00 in
Snow Depth Not available.
7:41 AM 4:41 PM
Waxing Gibbous, 90% visible
METAR KFRM 110756Z AUTO 12015KT 4SM -SN BR SCT022 BKN029 OVC065 M07/M08 A2993 RMK AO2 SLP160 P0000 T10671083 FZRANO

10-Day Weather Forecast

Almanac

Astronomy

Dec. 11, 2016 Rise Set
Actual Time
Civil Twilight
Nautical Twilight
Astronomical Twilight
Moon
Length of Visible Light
Length of Day
Tomorrow will be .
, % of the Moon is Illuminated

Today's Extremes

State Highs State Lows

Community

WunderPhotos

Upload Photos

1,956,706 photos uploaded!

WunderBlog® & News

Nearby

Air Quality

  Air Quality AQ Index Pollutant
Not available.

Snow Depth

Station Depth Elevation

Earthquake Activity

City Distance Mag. Time & Date
Minimum magnitude displayed is 2.5.

Coastal Water Temperatures

Place Temperature

Stations

Nearby Weather Stations

Station Location Temp. Windchill Dew Point Humidity Wind Precip. Elev Updated Type
                   

Watches & Warnings

Winter Weather Advisory
Issued: 11:12 PM CST Dec. 10, 2016 – National Weather Service

... Winter Weather Advisory remains in effect until noon CST
Sunday...

* expect snow to continue... diminishing around noon Sunday.

* Additional snow accumulations of 3 to 6 inches are expected.

* Look for reduced visibilities at times.

* Plan on difficult driving conditions.

Precautionary/preparedness actions...

A Winter Weather Advisory for snow means periods of snow will
cause primarily travel difficulties. Be prepared for snow covered
roads and limited visibilities... and use caution while driving.
The latest Road conditions for the state you are calling from can
be obtained by calling 5 1 1.